sensor_id;sensor_type;location;lat;lon;timestamp;temperature;humidity
75126;DHT22;63699;45.442;11.510;2022-12-10T00:00:53;18.40;70.70
75126;DHT22;63699;45.442;11.510;2022-12-10T00:03:18;18.50;70.80
75126;DHT22;63699;45.442;11.510;2022-12-10T00:05:44;18.50;70.80
75126;DHT22;63699;45.442;11.510;2022-12-10T00:08:09;18.50;70.80
75126;DHT22;63699;45.442;11.510;2022-12-10T00:10:39;18.50;70.80
75126;DHT22;63699;45.442;11.510;2022-12-10T00:13:05;18.50;70.90
75126;DHT22;63699;45.442;11.510;2022-12-10T00:15:33;18.50;70.90
75126;DHT22;63699;45.442;11.510;2022-12-10T00:17:59;18.50;70.90
75126;DHT22;63699;45.442;11.510;2022-12-10T00:20:24;18.50;70.90
75126;DHT22;63699;45.442;11.510;2022-12-10T00:22:50;18.50;70.90
75126;DHT22;63699;45.442;11.510;2022-12-10T00:25:16;18.50;71.00
75126;DHT22;63699;45.442;11.510;2022-12-10T00:27:42;18.50;71.00
75126;DHT22;63699;45.442;11.510;2022-12-10T00:30:08;18.50;71.00
75126;DHT22;63699;45.442;11.510;2022-12-10T00:32:34;18.50;71.00
75126;DHT22;63699;45.442;11.510;2022-12-10T00:34:59;18.50;71.00
75126;DHT22;63699;45.442;11.510;2022-12-10T00:37:25;18.50;71.00
75126;DHT22;63699;45.442;11.510;2022-12-10T00:39:50;18.50;71.00
75126;DHT22;63699;45.442;11.510;2022-12-10T00:42:16;18.50;71.60
75126;DHT22;63699;45.442;11.510;2022-12-10T00:44:41;18.50;71.10
75126;DHT22;63699;45.442;11.510;2022-12-10T00:47:07;18.60;71.20
75126;DHT22;63699;45.442;11.510;2022-12-10T00:49:33;18.50;71.10
75126;DHT22;63699;45.442;11.510;2022-12-10T00:51:58;18.50;71.10
75126;DHT22;63699;45.442;11.510;2022-12-10T00:54:24;18.50;71.10
75126;DHT22;63699;45.442;11.510;2022-12-10T00:56:50;18.50;71.10
75126;DHT22;63699;45.442;11.510;2022-12-10T00:59:15;18.50;71.10
75126;DHT22;63699;45.442;11.510;2022-12-10T01:01:42;18.50;71.10
75126;DHT22;63699;45.442;11.510;2022-12-10T01:04:13;18.50;71.10
75126;DHT22;63699;45.442;11.510;2022-12-10T01:06:51;18.50;71.20
75126;DHT22;63699;45.442;11.510;2022-12-10T01:09:20;18.50;71.30
75126;DHT22;63699;45.442;11.510;2022-12-10T01:11:48;18.50;71.20
75126;DHT22;63699;45.442;11.510;2022-12-10T01:14:17;18.50;71.20
75126;DHT22;63699;45.442;11.510;2022-12-10T01:16:44;18.50;71.20
75126;DHT22;63699;45.442;11.510;2022-12-10T01:19:10;18.50;71.30
75126;DHT22;63699;45.442;11.510;2022-12-10T01:21:36;18.50;71.80
75126;DHT22;63699;45.442;11.510;2022-12-10T01:24:02;18.50;71.30
75126;DHT22;63699;45.442;11.510;2022-12-10T01:26:31;18.50;71.30
75126;DHT22;63699;45.442;11.510;2022-12-10T01:28:57;18.50;71.30
75126;DHT22;63699;45.442;11.510;2022-12-10T01:31:29;18.50;71.30
75126;DHT22;63699;45.442;11.510;2022-12-10T01:33:56;18.50;71.30
75126;DHT22;63699;45.442;11.510;2022-12-10T01:36:26;18.50;71.30
75126;DHT22;63699;45.442;11.510;2022-12-10T01:38:52;18.50;71.30
75126;DHT22;63699;45.442;11.510;2022-12-10T01:41:24;18.50;71.20
75126;DHT22;63699;45.442;11.510;2022-12-10T01:43:59;18.50;71.30
75126;DHT22;63699;45.442;11.510;2022-12-10T01:46:28;18.50;71.30
75126;DHT22;63699;45.442;11.510;2022-12-10T01:48:54;18.50;71.30
75126;DHT22;63699;45.442;11.510;2022-12-10T01:51:21;18.60;71.40
75126;DHT22;63699;45.442;11.510;2022-12-10T01:53:47;18.50;71.30
75126;DHT22;63699;45.442;11.510;2022-12-10T01:56:16;18.50;71.30
75126;DHT22;63699;45.442;11.510;2022-12-10T01:58:43;18.60;71.30
75126;DHT22;63699;45.442;11.510;2022-12-10T02:01:32;18.50;71.30
75126;DHT22;63699;45.442;11.510;2022-12-10T02:07:17;18.60;71.30
75126;DHT22;63699;45.442;11.510;2022-12-10T02:09:57;18.60;71.30
75126;DHT22;63699;45.442;11.510;2022-12-10T02:12:30;18.60;71.40
75126;DHT22;63699;45.442;11.510;2022-12-10T02:15:12;18.60;71.40
75126;DHT22;63699;45.442;11.510;2022-12-10T02:18:09;18.60;71.40
75126;DHT22;63699;45.442;11.510;2022-12-10T02:20:48;18.60;71.40
75126;DHT22;63699;45.442;11.510;2022-12-10T02:23:49;18.60;71.40
75126;DHT22;63699;45.442;11.510;2022-12-10T02:26:40;18.60;71.40
75126;DHT22;63699;45.442;11.510;2022-12-10T02:29:18;18.60;71.40
75126;DHT22;63699;45.442;11.510;2022-12-10T02:31:52;18.60;71.40
75126;DHT22;63699;45.442;11.510;2022-12-10T02:34:20;18.60;71.50
75126;DHT22;63699;45.442;11.510;2022-12-10T02:36:49;18.60;71.60
75126;DHT22;63699;45.442;11.510;2022-12-10T02:39:20;18.60;71.50
75126;DHT22;63699;45.442;11.510;2022-12-10T02:41:54;18.60;71.50
75126;DHT22;63699;45.442;11.510;2022-12-10T02:44:21;18.60;71.50
75126;DHT22;63699;45.442;11.510;2022-12-10T02:46:51;18.60;71.50
75126;DHT22;63699;45.442;11.510;2022-12-10T02:49:18;18.60;71.50
75126;DHT22;63699;45.442;11.510;2022-12-10T02:51:43;18.60;71.50
75126;DHT22;63699;45.442;11.510;2022-12-10T02:54:39;18.60;71.50
75126;DHT22;63699;45.442;11.510;2022-12-10T02:59:54;18.60;71.40
75126;DHT22;63699;45.442;11.510;2022-12-10T03:02:40;18.60;71.40
75126;DHT22;63699;45.442;11.510;2022-12-10T03:05:19;18.60;71.30
75126;DHT22;63699;45.442;11.510;2022-12-10T03:10:51;18.60;71.30
75126;DHT22;63699;45.442;11.510;2022-12-10T03:13:21;18.60;71.30
75126;DHT22;63699;45.442;11.510;2022-12-10T03:15:49;18.60;71.30
75126;DHT22;63699;45.442;11.510;2022-12-10T03:18:17;18.60;71.30
75126;DHT22;63699;45.442;11.510;2022-12-10T03:20:45;18.60;71.40
75126;DHT22;63699;45.442;11.510;2022-12-10T03:23:15;18.60;71.50
75126;DHT22;63699;45.442;11.510;2022-12-10T03:25:42;18.60;71.40
75126;DHT22;63699;45.442;11.510;2022-12-10T03:28:09;18.60;71.50
75126;DHT22;63699;45.442;11.510;2022-12-10T03:30:36;18.60;71.50
75126;DHT22;63699;45.442;11.510;2022-12-10T03:33:02;18.50;71.40
75126;DHT22;63699;45.442;11.510;2022-12-10T03:35:29;18.60;71.50
75126;DHT22;63699;45.442;11.510;2022-12-10T03:37:56;18.50;71.50
75126;DHT22;63699;45.442;11.510;2022-12-10T03:40:23;18.50;71.50
75126;DHT22;63699;45.442;11.510;2022-12-10T03:42:49;18.50;71.50
75126;DHT22;63699;45.442;11.510;2022-12-10T03:45:14;18.50;71.50
75126;DHT22;63699;45.442;11.510;2022-12-10T03:47:41;18.50;71.50
75126;DHT22;63699;45.442;11.510;2022-12-10T03:50:07;18.50;71.50
75126;DHT22;63699;45.442;11.510;2022-12-10T03:52:33;18.50;71.50
75126;DHT22;63699;45.442;11.510;2022-12-10T03:54:58;18.60;71.60
75126;DHT22;63699;45.442;11.510;2022-12-10T03:57:24;18.60;71.60
75126;DHT22;63699;45.442;11.510;2022-12-10T03:59:50;18.50;71.50
75126;DHT22;63699;45.442;11.510;2022-12-10T04:02:15;18.50;71.60
75126;DHT22;63699;45.442;11.510;2022-12-10T04:04:41;18.50;71.60
75126;DHT22;63699;45.442;11.510;2022-12-10T04:07:07;18.50;71.60
75126;DHT22;63699;45.442;11.510;2022-12-10T04:09:32;18.50;71.60
75126;DHT22;63699;45.442;11.510;2022-12-10T04:11:59;18.50;71.60
75126;DHT22;63699;45.442;11.510;2022-12-10T04:14:26;18.60;71.50
75126;DHT22;63699;45.442;11.510;2022-12-10T04:17:10;18.60;71.50
75126;DHT22;63699;45.442;11.510;2022-12-10T04:19:36;18.60;71.60
75126;DHT22;63699;45.442;11.510;2022-12-10T04:22:02;18.60;71.60
75126;DHT22;63699;45.442;11.510;2022-12-10T04:24:46;18.60;71.50
75126;DHT22;63699;45.442;11.510;2022-12-10T04:27:38;18.60;71.50
75126;DHT22;63699;45.442;11.510;2022-12-10T04:30:09;18.60;71.60
75126;DHT22;63699;45.442;11.510;2022-12-10T04:32:35;18.50;71.60
75126;DHT22;63699;45.442;11.510;2022-12-10T04:35:01;18.60;71.60
75126;DHT22;63699;45.442;11.510;2022-12-10T04:37:27;18.60;71.70
75126;DHT22;63699;45.442;11.510;2022-12-10T04:39:53;18.60;71.60
75126;DHT22;63699;45.442;11.510;2022-12-10T04:42:20;18.60;71.60
75126;DHT22;63699;45.442;11.510;2022-12-10T04:44:46;18.60;71.70
75126;DHT22;63699;45.442;11.510;2022-12-10T04:47:12;18.60;71.70
75126;DHT22;63699;45.442;11.510;2022-12-10T04:49:38;18.60;71.60
75126;DHT22;63699;45.442;11.510;2022-12-10T04:52:05;18.60;71.70
75126;DHT22;63699;45.442;11.510;2022-12-10T04:54:31;18.60;71.60
75126;DHT22;63699;45.442;11.510;2022-12-10T04:56:56;18.60;71.70
75126;DHT22;63699;45.442;11.510;2022-12-10T04:59:22;18.60;71.60
75126;DHT22;63699;45.442;11.510;2022-12-10T05:01:48;18.60;71.60
75126;DHT22;63699;45.442;11.510;2022-12-10T05:04:16;18.60;71.60
75126;DHT22;63699;45.442;11.510;2022-12-10T05:06:42;18.60;71.70
75126;DHT22;63699;45.442;11.510;2022-12-10T05:09:09;18.60;71.60
75126;DHT22;63699;45.442;11.510;2022-12-10T05:11:35;18.60;71.60
75126;DHT22;63699;45.442;11.510;2022-12-10T05:14:01;18.70;71.50
75126;DHT22;63699;45.442;11.510;2022-12-10T05:16:29;18.70;71.50
75126;DHT22;63699;45.442;11.510;2022-12-10T05:18:56;18.70;71.40
75126;DHT22;63699;45.442;11.510;2022-12-10T05:21:23;18.70;71.20
75126;DHT22;63699;45.442;11.510;2022-12-10T05:23:50;18.70;71.30
75126;DHT22;63699;45.442;11.510;2022-12-10T05:26:22;18.80;71.30
75126;DHT22;63699;45.442;11.510;2022-12-10T05:28:53;18.80;71.30
75126;DHT22;63699;45.442;11.510;2022-12-10T05:31:24;18.80;71.10
75126;DHT22;63699;45.442;11.510;2022-12-10T05:33:50;18.80;71.00
75126;DHT22;63699;45.442;11.510;2022-12-10T05:36:19;18.80;70.90
75126;DHT22;63699;45.442;11.510;2022-12-10T05:38:45;18.90;71.00
75126;DHT22;63699;45.442;11.510;2022-12-10T05:41:13;18.90;71.10
75126;DHT22;63699;45.442;11.510;2022-12-10T05:43:39;18.90;71.00
75126;DHT22;63699;45.442;11.510;2022-12-10T05:46:07;18.90;70.90
75126;DHT22;63699;45.442;11.510;2022-12-10T05:48:33;18.90;71.00
75126;DHT22;63699;45.442;11.510;2022-12-10T05:51:07;18.80;70.90
75126;DHT22;63699;45.442;11.510;2022-12-10T05:53:33;18.80;71.00
75126;DHT22;63699;45.442;11.510;2022-12-10T05:56:04;18.80;71.00
75126;DHT22;63699;45.442;11.510;2022-12-10T05:58:30;18.80;71.00
75126;DHT22;63699;45.442;11.510;2022-12-10T06:00:59;18.80;71.00
75126;DHT22;63699;45.442;11.510;2022-12-10T06:03:26;18.80;71.10
75126;DHT22;63699;45.442;11.510;2022-12-10T06:05:52;18.80;71.10
75126;DHT22;63699;45.442;11.510;2022-12-10T06:08:18;18.80;71.20
75126;DHT22;63699;45.442;11.510;2022-12-10T06:10:44;18.80;71.10
75126;DHT22;63699;45.442;11.510;2022-12-10T06:13:09;18.80;71.10
75126;DHT22;63699;45.442;11.510;2022-12-10T06:15:38;18.80;71.20
75126;DHT22;63699;45.442;11.510;2022-12-10T06:18:04;18.80;71.10
75126;DHT22;63699;45.442;11.510;2022-12-10T06:20:30;18.70;71.20
75126;DHT22;63699;45.442;11.510;2022-12-10T06:22:55;18.80;71.30
75126;DHT22;63699;45.442;11.510;2022-12-10T06:25:21;18.80;71.30
75126;DHT22;63699;45.442;11.510;2022-12-10T06:27:47;18.80;71.30
75126;DHT22;63699;45.442;11.510;2022-12-10T06:30:12;18.80;71.20
75126;DHT22;63699;45.442;11.510;2022-12-10T06:32:38;18.80;71.20
75126;DHT22;63699;45.442;11.510;2022-12-10T06:35:05;18.80;71.20
75126;DHT22;63699;45.442;11.510;2022-12-10T06:37:30;18.80;71.20
75126;DHT22;63699;45.442;11.510;2022-12-10T06:39:56;18.80;71.10
75126;DHT22;63699;45.442;11.510;2022-12-10T06:42:22;18.80;71.20
75126;DHT22;63699;45.442;11.510;2022-12-10T06:44:47;18.80;71.30
75126;DHT22;63699;45.442;11.510;2022-12-10T06:47:13;18.80;71.30
75126;DHT22;63699;45.442;11.510;2022-12-10T06:49:40;18.80;71.90
75126;DHT22;63699;45.442;11.510;2022-12-10T06:52:06;18.80;71.20
75126;DHT22;63699;45.442;11.510;2022-12-10T06:54:32;18.70;71.30
75126;DHT22;63699;45.442;11.510;2022-12-10T06:56:58;18.80;71.30
75126;DHT22;63699;45.442;11.510;2022-12-10T06:59:24;18.80;71.10
75126;DHT22;63699;45.442;11.510;2022-12-10T07:01:50;18.80;71.00
75126;DHT22;63699;45.442;11.510;2022-12-10T07:04:16;18.70;70.90
75126;DHT22;63699;45.442;11.510;2022-12-10T07:06:42;18.80;71.10
75126;DHT22;63699;45.442;11.510;2022-12-10T07:09:08;18.70;70.90
75126;DHT22;63699;45.442;11.510;2022-12-10T07:11:35;18.70;71.00
75126;DHT22;63699;45.442;11.510;2022-12-10T07:14:01;18.70;71.00
75126;DHT22;63699;45.442;11.510;2022-12-10T07:16:29;18.70;70.90
75126;DHT22;63699;45.442;11.510;2022-12-10T07:18:56;18.70;71.00
75126;DHT22;63699;45.442;11.510;2022-12-10T07:21:28;18.70;71.10
75126;DHT22;63699;45.442;11.510;2022-12-10T07:23:56;18.70;71.10
75126;DHT22;63699;45.442;11.510;2022-12-10T07:26:24;18.70;71.10
75126;DHT22;63699;45.442;11.510;2022-12-10T07:28:50;18.70;71.10
75126;DHT22;63699;45.442;11.510;2022-12-10T07:31:16;18.70;70.70
75126;DHT22;63699;45.442;11.510;2022-12-10T07:33:41;18.70;69.40
75126;DHT22;63699;45.442;11.510;2022-12-10T07:36:10;18.60;70.00
75126;DHT22;63699;45.442;11.510;2022-12-10T07:38:36;18.60;70.10
75126;DHT22;63699;45.442;11.510;2022-12-10T07:41:06;18.70;70.10
75126;DHT22;63699;45.442;11.510;2022-12-10T07:43:34;18.60;70.00
75126;DHT22;63699;45.442;11.510;2022-12-10T07:46:12;18.60;70.10
75126;DHT22;63699;45.442;11.510;2022-12-10T07:48:39;18.60;70.20
75126;DHT22;63699;45.442;11.510;2022-12-10T07:51:05;18.70;70.40
75126;DHT22;63699;45.442;11.510;2022-12-10T07:53:32;18.60;70.50
75126;DHT22;63699;45.442;11.510;2022-12-10T07:55:58;18.70;70.60
75126;DHT22;63699;45.442;11.510;2022-12-10T07:58:24;18.60;70.70
75126;DHT22;63699;45.442;11.510;2022-12-10T08:00:49;18.60;70.90
75126;DHT22;63699;45.442;11.510;2022-12-10T08:03:15;18.60;70.90
75126;DHT22;63699;45.442;11.510;2022-12-10T08:05:41;18.60;70.90
75126;DHT22;63699;45.442;11.510;2022-12-10T08:08:07;18.60;70.90
75126;DHT22;63699;45.442;11.510;2022-12-10T08:10:36;18.70;70.90
75126;DHT22;63699;45.442;11.510;2022-12-10T08:13:03;18.70;70.90
75126;DHT22;63699;45.442;11.510;2022-12-10T08:15:29;18.70;70.90
75126;DHT22;63699;45.442;11.510;2022-12-10T08:17:55;18.70;70.90
75126;DHT22;63699;45.442;11.510;2022-12-10T08:20:21;18.70;70.90
75126;DHT22;63699;45.442;11.510;2022-12-10T08:22:47;18.70;70.90
75126;DHT22;63699;45.442;11.510;2022-12-10T08:25:13;18.70;71.00
75126;DHT22;63699;45.442;11.510;2022-12-10T08:27:39;18.70;71.00
75126;DHT22;63699;45.442;11.510;2022-12-10T08:30:05;18.70;70.90
75126;DHT22;63699;45.442;11.510;2022-12-10T08:32:30;18.70;70.90
75126;DHT22;63699;45.442;11.510;2022-12-10T08:34:56;18.70;70.90
75126;DHT22;63699;45.442;11.510;2022-12-10T08:37:22;18.70;70.90
75126;DHT22;63699;45.442;11.510;2022-12-10T08:39:47;18.70;70.90
75126;DHT22;63699;45.442;11.510;2022-12-10T08:42:13;18.60;71.00
75126;DHT22;63699;45.442;11.510;2022-12-10T08:44:39;18.70;70.90
75126;DHT22;63699;45.442;11.510;2022-12-10T08:47:04;18.70;71.00
75126;DHT22;63699;45.442;11.510;2022-12-10T08:49:31;18.70;71.00
75126;DHT22;63699;45.442;11.510;2022-12-10T08:51:56;18.60;70.90
75126;DHT22;63699;45.442;11.510;2022-12-10T08:54:22;18.60;71.10
75126;DHT22;63699;45.442;11.510;2022-12-10T08:56:47;18.60;71.00
75126;DHT22;63699;45.442;11.510;2022-12-10T08:59:13;18.60;71.00
75126;DHT22;63699;45.442;11.510;2022-12-10T09:01:39;18.60;70.70
75126;DHT22;63699;45.442;11.510;2022-12-10T09:04:04;18.50;70.80
75126;DHT22;63699;45.442;11.510;2022-12-10T09:06:30;18.50;70.90
75126;DHT22;63699;45.442;11.510;2022-12-10T09:08:56;18.60;71.00
75126;DHT22;63699;45.442;11.510;2022-12-10T09:11:28;18.50;71.00
75126;DHT22;63699;45.442;11.510;2022-12-10T09:13:54;18.60;71.00
75126;DHT22;63699;45.442;11.510;2022-12-10T09:16:20;18.50;70.90
75126;DHT22;63699;45.442;11.510;2022-12-10T09:18:46;18.50;71.10
75126;DHT22;63699;45.442;11.510;2022-12-10T09:21:14;18.50;71.20
75126;DHT22;63699;45.442;11.510;2022-12-10T09:23:40;18.50;71.10
75126;DHT22;63699;45.442;11.510;2022-12-10T09:26:11;18.50;71.10
75126;DHT22;63699;45.442;11.510;2022-12-10T09:28:38;18.50;71.10
75126;DHT22;63699;45.442;11.510;2022-12-10T09:31:05;18.50;71.10
75126;DHT22;63699;45.442;11.510;2022-12-10T09:33:31;18.50;71.30
75126;DHT22;63699;45.442;11.510;2022-12-10T09:35:57;18.50;71.20
75126;DHT22;63699;45.442;11.510;2022-12-10T09:38:23;18.50;71.20
75126;DHT22;63699;45.442;11.510;2022-12-10T09:41:02;18.50;71.90
75126;DHT22;63699;45.442;11.510;2022-12-10T09:48:47;18.50;71.40
75126;DHT22;63699;45.442;11.510;2022-12-10T09:51:23;18.50;71.90
75126;DHT22;63699;45.442;11.510;2022-12-10T09:53:51;18.60;71.80
75126;DHT22;63699;45.442;11.510;2022-12-10T09:56:26;18.60;71.80
75126;DHT22;63699;45.442;11.510;2022-12-10T09:58:52;18.60;71.80
75126;DHT22;63699;45.442;11.510;2022-12-10T10:01:19;18.60;71.80
75126;DHT22;63699;45.442;11.510;2022-12-10T10:03:48;18.60;71.90
75126;DHT22;63699;45.442;11.510;2022-12-10T10:06:14;18.60;72.50
75126;DHT22;63699;45.442;11.510;2022-12-10T10:08:43;18.60;72.00
75126;DHT22;63699;45.442;11.510;2022-12-10T10:11:19;18.60;72.00
75126;DHT22;63699;45.442;11.510;2022-12-10T10:13:51;18.60;72.50
75126;DHT22;63699;45.442;11.510;2022-12-10T10:19:02;18.70;72.20
75126;DHT22;63699;45.442;11.510;2022-12-10T10:21:41;18.60;72.10
75126;DHT22;63699;45.442;11.510;2022-12-10T10:24:13;18.70;72.10
75126;DHT22;63699;45.442;11.510;2022-12-10T10:26:40;18.70;72.10
75126;DHT22;63699;45.442;11.510;2022-12-10T10:29:09;18.60;72.10
75126;DHT22;63699;45.442;11.510;2022-12-10T10:31:39;18.70;72.20
75126;DHT22;63699;45.442;11.510;2022-12-10T10:34:16;18.70;72.30
75126;DHT22;63699;45.442;11.510;2022-12-10T10:36:42;18.70;72.90
75126;DHT22;63699;45.442;11.510;2022-12-10T10:41:56;18.70;72.30
75126;DHT22;63699;45.442;11.510;2022-12-10T10:44:26;18.70;72.40
75126;DHT22;63699;45.442;11.510;2022-12-10T10:46:54;18.70;72.60
75126;DHT22;63699;45.442;11.510;2022-12-10T10:49:29;18.70;72.70
75126;DHT22;63699;45.442;11.510;2022-12-10T10:52:06;18.70;72.70
75126;DHT22;63699;45.442;11.510;2022-12-10T10:54:41;18.70;72.60
75126;DHT22;63699;45.442;11.510;2022-12-10T10:57:31;18.60;63.60
75126;DHT22;63699;45.442;11.510;2022-12-10T11:00:22;18.10;55.10
75126;DHT22;63699;45.442;11.510;2022-12-10T11:02:48;17.70;60.60
75126;DHT22;63699;45.442;11.510;2022-12-10T11:05:24;17.60;62.70
75126;DHT22;63699;45.442;11.510;2022-12-10T11:08:04;17.60;63.80
75126;DHT22;63699;45.442;11.510;2022-12-10T11:10:31;17.60;64.80
75126;DHT22;63699;45.442;11.510;2022-12-10T11:15:36;17.70;65.30
75126;DHT22;63699;45.442;11.510;2022-12-10T11:18:25;17.80;65.60
75126;DHT22;63699;45.442;11.510;2022-12-10T11:21:06;17.80;65.70
75126;DHT22;63699;45.442;11.510;2022-12-10T11:23:46;17.90;65.80
75126;DHT22;63699;45.442;11.510;2022-12-10T11:26:34;17.90;66.00
75126;DHT22;63699;45.442;11.510;2022-12-10T11:32:04;18.00;66.40
75126;DHT22;63699;45.442;11.510;2022-12-10T11:42:49;18.00;66.90
75126;DHT22;63699;45.442;11.510;2022-12-10T11:45:29;18.10;67.00
75126;DHT22;63699;45.442;11.510;2022-12-10T11:51:04;18.00;67.20
75126;DHT22;63699;45.442;11.510;2022-12-10T11:56:26;18.00;67.50
75126;DHT22;63699;45.442;11.510;2022-12-10T11:59:05;18.00;67.60
75126;DHT22;63699;45.442;11.510;2022-12-10T12:04:46;18.00;67.90
75126;DHT22;63699;45.442;11.510;2022-12-10T12:07:18;18.10;68.00
75126;DHT22;63699;45.442;11.510;2022-12-10T12:15:19;18.10;68.20
75126;DHT22;63699;45.442;11.510;2022-12-10T12:17:55;18.00;68.20
75126;DHT22;63699;45.442;11.510;2022-12-10T12:21:01;18.10;68.40
75126;DHT22;63699;45.442;11.510;2022-12-10T12:28:46;18.00;68.60
75126;DHT22;63699;45.442;11.510;2022-12-10T12:31:38;18.10;68.60
75126;DHT22;63699;45.442;11.510;2022-12-10T12:34:17;18.00;68.70
75126;DHT22;63699;45.442;11.510;2022-12-10T12:36:44;18.10;68.90
75126;DHT22;63699;45.442;11.510;2022-12-10T12:39:34;18.10;68.90
75126;DHT22;63699;45.442;11.510;2022-12-10T12:45:03;18.00;68.90
75126;DHT22;63699;45.442;11.510;2022-12-10T12:48:06;18.00;69.10
75126;DHT22;63699;45.442;11.510;2022-12-10T12:50:44;18.00;69.20
75126;DHT22;63699;45.442;11.510;2022-12-10T12:53:20;18.00;69.20
75126;DHT22;63699;45.442;11.510;2022-12-10T12:56:10;18.00;69.20
75126;DHT22;63699;45.442;11.510;2022-12-10T13:04:09;18.00;69.40
75126;DHT22;63699;45.442;11.510;2022-12-10T13:06:38;18.00;69.50
75126;DHT22;63699;45.442;11.510;2022-12-10T13:14:34;18.00;69.50
75126;DHT22;63699;45.442;11.510;2022-12-10T13:17:38;18.00;69.60
75126;DHT22;63699;45.442;11.510;2022-12-10T13:20:29;18.00;69.60
75126;DHT22;63699;45.442;11.510;2022-12-10T13:23:01;18.00;69.70
75126;DHT22;63699;45.442;11.510;2022-12-10T13:25:41;18.00;69.80
75126;DHT22;63699;45.442;11.510;2022-12-10T13:28:26;17.90;69.80
75126;DHT22;63699;45.442;11.510;2022-12-10T13:31:32;17.90;69.80
75126;DHT22;63699;45.442;11.510;2022-12-10T13:36:35;17.90;69.90
75126;DHT22;63699;45.442;11.510;2022-12-10T13:42:22;17.90;70.00
75126;DHT22;63699;45.442;11.510;2022-12-10T13:44:48;17.90;70.00
75126;DHT22;63699;45.442;11.510;2022-12-10T13:59:10;17.90;70.20
75126;DHT22;63699;45.442;11.510;2022-12-10T14:07:17;17.90;70.30
75126;DHT22;63699;45.442;11.510;2022-12-10T14:09:52;17.90;70.30
75126;DHT22;63699;45.442;11.510;2022-12-10T14:12:24;17.90;70.30
75126;DHT22;63699;45.442;11.510;2022-12-10T14:15:01;17.90;70.30
75126;DHT22;63699;45.442;11.510;2022-12-10T14:17:39;17.90;70.40
75126;DHT22;63699;45.442;11.510;2022-12-10T14:20:07;17.90;70.50
75126;DHT22;63699;45.442;11.510;2022-12-10T14:22:51;17.90;70.50
75126;DHT22;63699;45.442;11.510;2022-12-10T14:25:21;17.90;70.40
75126;DHT22;63699;45.442;11.510;2022-12-10T14:27:52;17.90;70.50
75126;DHT22;63699;45.442;11.510;2022-12-10T14:30:20;17.90;70.50
75126;DHT22;63699;45.442;11.510;2022-12-10T14:32:47;17.90;70.50
75126;DHT22;63699;45.442;11.510;2022-12-10T14:35:19;17.90;70.60
75126;DHT22;63699;45.442;11.510;2022-12-10T14:37:46;17.90;70.60
75126;DHT22;63699;45.442;11.510;2022-12-10T14:40:40;17.90;70.60
75126;DHT22;63699;45.442;11.510;2022-12-10T14:43:14;17.90;70.60
75126;DHT22;63699;45.442;11.510;2022-12-10T14:45:55;17.90;70.70
75126;DHT22;63699;45.442;11.510;2022-12-10T14:48:22;17.90;70.70
75126;DHT22;63699;45.442;11.510;2022-12-10T14:50:49;18.00;70.70
75126;DHT22;63699;45.442;11.510;2022-12-10T14:53:22;18.00;70.70
75126;DHT22;63699;45.442;11.510;2022-12-10T14:55:49;17.90;70.70
75126;DHT22;63699;45.442;11.510;2022-12-10T14:58:26;18.00;70.80
75126;DHT22;63699;45.442;11.510;2022-12-10T15:00:53;17.90;70.80
75126;DHT22;63699;45.442;11.510;2022-12-10T15:03:29;17.90;70.80
75126;DHT22;63699;45.442;11.510;2022-12-10T15:06:01;18.00;70.80
75126;DHT22;63699;45.442;11.510;2022-12-10T15:08:28;17.90;70.80
75126;DHT22;63699;45.442;11.510;2022-12-10T15:10:57;18.00;70.90
75126;DHT22;63699;45.442;11.510;2022-12-10T15:13:33;18.00;70.90
75126;DHT22;63699;45.442;11.510;2022-12-10T15:16:00;18.00;70.80
75126;DHT22;63699;45.442;11.510;2022-12-10T15:18:37;18.00;70.90
75126;DHT22;63699;45.442;11.510;2022-12-10T15:21:09;17.90;70.80
75126;DHT22;63699;45.442;11.510;2022-12-10T15:23:35;18.00;70.90
75126;DHT22;63699;45.442;11.510;2022-12-10T15:28:46;17.90;70.80
75126;DHT22;63699;45.442;11.510;2022-12-10T15:33:45;17.90;70.30
75126;DHT22;63699;45.442;11.510;2022-12-10T15:36:32;17.90;70.10
75126;DHT22;63699;45.442;11.510;2022-12-10T15:39:29;17.90;69.40
75126;DHT22;63699;45.442;11.510;2022-12-10T15:41:57;17.90;69.10
75126;DHT22;63699;45.442;11.510;2022-12-10T15:49:23;17.90;68.70
75126;DHT22;63699;45.442;11.510;2022-12-10T15:51:48;17.90;68.60
75126;DHT22;63699;45.442;11.510;2022-12-10T15:54:34;17.90;68.60
75126;DHT22;63699;45.442;11.510;2022-12-10T15:57:14;18.00;69.20
75126;DHT22;63699;45.442;11.510;2022-12-10T15:59:42;18.00;68.90
75126;DHT22;63699;45.442;11.510;2022-12-10T16:07:38;18.10;69.00
75126;DHT22;63699;45.442;11.510;2022-12-10T16:10:04;18.10;69.20
75126;DHT22;63699;45.442;11.510;2022-12-10T16:12:31;18.20;69.50
75126;DHT22;63699;45.442;11.510;2022-12-10T16:15:00;18.20;69.70
75126;DHT22;63699;45.442;11.510;2022-12-10T16:17:27;18.30;69.70
75126;DHT22;63699;45.442;11.510;2022-12-10T16:22:45;18.40;70.00
75126;DHT22;63699;45.442;11.510;2022-12-10T16:25:11;18.50;70.30
75126;DHT22;63699;45.442;11.510;2022-12-10T16:27:36;18.60;70.50
75126;DHT22;63699;45.442;11.510;2022-12-10T16:32:40;18.70;70.80
75126;DHT22;63699;45.442;11.510;2022-12-10T16:35:06;18.80;71.00
75126;DHT22;63699;45.442;11.510;2022-12-10T16:37:31;18.80;70.90
75126;DHT22;63699;45.442;11.510;2022-12-10T16:39:57;18.80;70.60
75126;DHT22;63699;45.442;11.510;2022-12-10T16:42:22;18.80;70.50
75126;DHT22;63699;45.442;11.510;2022-12-10T16:44:48;18.80;70.40
75126;DHT22;63699;45.442;11.510;2022-12-10T16:47:14;18.90;70.70
75126;DHT22;63699;45.442;11.510;2022-12-10T16:49:40;18.80;70.60
75126;DHT22;63699;45.442;11.510;2022-12-10T16:52:06;18.80;70.70
75126;DHT22;63699;45.442;11.510;2022-12-10T16:54:31;18.90;71.10
75126;DHT22;63699;45.442;11.510;2022-12-10T16:56:57;18.90;71.10
75126;DHT22;63699;45.442;11.510;2022-12-10T16:59:22;18.90;71.20
75126;DHT22;63699;45.442;11.510;2022-12-10T17:01:48;18.90;71.30
75126;DHT22;63699;45.442;11.510;2022-12-10T17:04:13;18.90;71.30
75126;DHT22;63699;45.442;11.510;2022-12-10T17:06:39;18.90;71.40
75126;DHT22;63699;45.442;11.510;2022-12-10T17:09:05;19.00;71.40
75126;DHT22;63699;45.442;11.510;2022-12-10T17:11:38;19.00;71.50
75126;DHT22;63699;45.442;11.510;2022-12-10T17:14:30;19.00;71.50
75126;DHT22;63699;45.442;11.510;2022-12-10T17:16:58;19.00;71.50
75126;DHT22;63699;45.442;11.510;2022-12-10T17:19:27;19.00;71.60
75126;DHT22;63699;45.442;11.510;2022-12-10T17:21:53;19.00;71.60
75126;DHT22;63699;45.442;11.510;2022-12-10T17:24:19;19.10;71.70